WEATHER DATA

YESTERDAY
Time Temp. Dewp. Hum. Wind dir Wind speed Wind gust Bar. 1h Prec. 24h Prec.
00:09 12.8 8.9 77 60 0.3 0.8 1018.2 0.1010 0.1000
00:20 12.7 8.8 77 57 0.3 0.6 1018.1 0.2020 0.2000
00:30 12.6 8.9 78 90 0.3 0.8 1017.9 0.2020 0.2000
00:40 12.4 8.7 78 90 0.3 0.6 1018 0.2020 0.2000
00:49 12.3 8.8 79 90 0.3 0.6 1017.9 0.2020 0.2000
01:00 12.1 8.8 80 90 0.3 0.8 1017.9 0.1010 0.2000
01:10 12 9 82 90 0.3 0.6 1017.7 0.1010 0.2000
01:20 11.9 8.7 81 90 0.3 0.6 1017.8 0.0000 0.2000
01:30 12 8.8 81 90 0.3 0.8 1017.8 0.0000 0.2000
01:40 12 8.8 81 90 0.3 0.6 1017.5 0.0000 0.2000
01:50 12 9 82 90 0.3 0.6 1017.7 0.2020 0.4000
02:00 12 9 82 90 0.3 0.6 1017.5 0.2020 0.4000
02:11 12 9 82 90 0.3 0.6 1017.4 0.2020 0.4000
02:16 12 9 82 90 0.3 0.6 1017.4 0.3030 0.5000
02:25 12 9.2 83 60 0.3 0.6 1017 0.3030 0.5000
02:35 12 9.2 83 90 0.3 0.6 1017 0.3030 0.5000
02:46 11.9 9.1 83 90 0.3 0.8 1016.9 0.1010 0.5000
02:56 11.9 9.1 83 59 0.3 0.6 1016.8 0.1010 0.5000
03:05 11.7 8.9 83 90 0.3 0.6 1016.6 0.2020 0.6000
03:16 11.7 8.9 83 90 0.3 0.8 1016.3 0.1010 0.6000
03:26 11.7 8.9 83 90 0.3 0.6 1016.2 0.1010 0.6000
03:36 11.8 9.2 84 90 0.3 0.8 1016.1 0.2020 0.7000
03:46 11.8 9 83 90 0.3 0.8 1015.8 0.2020 0.7000
03:56 11.7 8.9 83 90 0.3 0.6 1015.8 0.1010 0.7000
04:06 11.5 8.9 84 90 0.3 0.8 1015.5 0.1010 0.7000
04:16 11.4 9 85 90 0.3 0.6 1015.4 0.1010 0.7000
04:26 11.3 8.9 85 90 0.3 0.6 1015.3 0.1010 0.7000
04:37 11.2 8.9 86 90 0.3 0.8 1014.8 0.0000 0.7000
04:46 11.2 8.9 86 60 0.3 0.6 1014.7 0.0000 0.7000
04:56 11.2 8.9 86 90 0.3 0.6 1014.5 0.1010 0.8000
05:07 11.2 8.9 86 90 0.3 0.6 1014.4 0.1010 0.8000
05:23 11.3 9.2 87 60 0.3 0.8 1014.1 0.3030 1.0000
05:33 11.3 9.2 87 90 0.3 0.6 1013.8 0.3030 1.0000
05:43 11.3 9.2 87 56 0.3 0.6 1013.5 0.5050 1.2000
05:53 11.3 9.4 88 90 0.3 0.6 1013.4 0.5050 1.3000
06:03 11.2 9.5 89 90 0.3 0.6 1013.2 0.7070 1.5000
06:13 11.2 9.5 89 90 0.3 0.6 1013.3 0.9090 1.7000
06:23 11.3 9.6 89 90 0.3 0.8 1013 1.1110 2.1000
06:33 11.3 9.6 89 90 0.3 0.8 1012.7 1.3130 2.3000
06:43 11.3 9.6 89 90 0.3 0.8 1012.6 1.3130 2.5000
06:53 11.4 9.7 89 51 0.3 0.6 1012.5 1.3130 2.6000
07:04 11.5 9.8 89 90 0.3 0.8 1012.4 1.3130 2.8000
07:13 11.5 9.8 89 90 0.3 0.6 1012.3 1.3130 3.0000
07:23 11.6 9.9 89 51 0.3 0.6 1012.2 1.2120 3.3000
07:34 11.6 9.9 89 60 0.3 0.8 1012 1.4140 3.7000
07:44 11.6 10 90 90 0.3 0.6 1011.9 1.4140 3.9000
07:54 11.6 10 90 90 0.3 0.6 1011.9 1.5150 4.1000
08:04 11.7 10.1 90 90 0.3 0.6 1011.6 1.6160 4.4000
08:04 11.7 10.1 90 90 0.3 0.6 1011.6 1.4140 4.4000
08:15 11.7 10.1 90 90 0.3 0.6 1011.5 1.4140 4.7000
08:25 11.7 10.1 90 90 0.3 0.6 1011.4 1.3130 5.1000
08:45 11.8 10.4 91 90 0.3 0.6 1011.2 1.4140 5.6000
08:55 11.8 10.4 91 90 0.3 1.1 1011 1.3130 5.8000
09:05 11.9 10.5 91 90 0.3 0.6 1010.8 1.1110 5.9000
09:15 12 10.6 91 52 0.3 0.6 1010.8 1.2120 6.1000
09:25 12 10.6 91 90 0.3 0.6 1010.6 0.9090 6.2000
09:36 12.1 10.7 91 90 0.3 0.8 1010.6 0.9090 6.4000
09:46 12.2 10.8 91 90 0.3 0.6 1010.3 0.8080 6.4000
09:55 12.4 11 91 45 0.3 0.8 1010.3 0.8080 6.6000
10:06 12.5 10.9 90 90 0.3 0.6 1010.1 0.7070 6.7000
10:16 12.6 11.2 91 90 0.3 0.6 1010 0.6060 6.8000
10:26 12.7 11.3 91 90 0.3 0.6 1010 0.6060 6.9000
10:36 12.8 11.4 91 0 0.6 1009.7 0.6060 7.0000
10:46 12.9 11.5 91 135 0.3 0.6 1009.6 0.5050 7.0000
10:56 13.1 11.7 91 168 0.3 0.6 1009.4 0.3030 7.0000
11:06 13.3 12 92 165 0.3 0.6 1009.3 0.3030 7.0000
11:17 13.5 12.2 92 0 0.6 1009.1 0.2020 7.0000
11:26 13.7 12.4 92 188 0.3 0.6 1008.9 0.0000 7.0000
11:36 13.8 12.5 92 150 0.3 0.6 1008.8 0.0000 7.0000
11:47 14 12.7 92 146 0.3 0.6 1008.5 0.0000 7.0000
11:57 14.3 13.3 94 143 0.3 0.6 1008.5 0.0000 7.0000
12:07 14.5 13.5 94 161 0.3 0.6 1008.3 0.0000 7.0000
12:16 14.9 14.4 97 150 0.3 1.7 1008.2 0.0000 7.0000
12:27 15.7 15.2 97 153 0.3 1.4 1008 0.0000 7.0000
12:37 16.2 15.6 96 159 0.3 2.5 1007.7 0.0000 7.0000
12:47 16.8 16.3 97 161 0.3 1.4 1007.7 0.0000 7.0000
12:57 17.3 16.7 96 198 0.3 0.8 1007.4 0.0000 7.0000
13:07 17.4 16.4 94 153 0.3 1.1 1007.1 0.0000 7.0000
13:17 17.7 16.9 95 149 0.3 3.1 1006.9 0.0000 7.0000
13:27 18.1 17 93 153 0.3 1.4 1006.7 0.0000 7.0000
13:38 18.4 17.1 92 71 0.6 1.7 1006.5 0.0000 7.0000
13:47 18.6 17.1 91 155 0.3 1.1 1005.9 0.0000 7.0000
13:57 18.7 16.9 89 142 0.6 3.1 1006 0.0000 7.0000
14:08 18.9 16.9 88 165 0.3 2.2 1005.5 0.0000 7.0000
14:18 19 17 88 135 0.3 1.9 1005.2 0.0000 7.0000
14:28 19 16.6 86 150 0.3 1.1 1004.8 0.0000 7.0000
14:37 19.1 16.7 86 141 0.3 1.9 1004.3 0.0000 7.0000
14:48 19.1 16.7 86 135 0.3 1.4 1004.2 0.0000 7.0000
14:58 19.1 16.7 86 149 0.3 1.1 1003.9 0.0000 7.0000
15:08 19.2 16.8 86 0.3 1.1 1003.7 0.0000 7.0000
15:18 19.4 16.8 85 225 0.6 1.7 1003.3 0.0000 7.0000
15:29 19.8 16.8 83 90 0.3 1.4 1002.8 0.0000 7.0000
15:34 19.9 16.7 82 147 0.6 4.7 1002.6 0.0000 7.0000
15:44 20.1 16.7 81 135 0.3 1.7 1002 0.0000 7.0000
15:54 20.3 16.7 80 135 0.3 1.4 1001.8 0.0000 7.0000
16:05 20.6 16.6 78 135 0.6 2.2 1001.4 0.0000 7.0000
16:14 20.8 16.6 77 139 0.6 3.3 1001.3 0.0000 7.0000
16:24 20.8 16.8 78 135 0.6 2.2 1001.4 0.0000 7.0000
16:41 20.3 17.1 82 90 0.6 1.7 1000.9 0.3030 7.3000
16:51 20 17.2 84 90 0.3 1.1 1000.5 0.7070 7.7000
17:00 19.7 17.1 85 312 1.1 6.7 1003.8 1.9190 8.9000
17:10 19.1 16 82 285 1.4 3.3 1002.8 8.5850 15.6000
17:20 18.2 15.1 82 216 1.9 3.1 1002.5 8.8880 15.9000
17:30 17.6 14.5 82 210 3.1 4.4 1003.2 8.9890 16.0000
17:40 17.1 14.4 84 213 3.3 4.2 1003.6 8.6860 16.0000
17:51 16.8 14.1 84 215 3.6 5.6 1004.1 8.2820 16.0000
18:01 16.5 14 85 212 3.6 5 1005 7.0700 16.0000
18:10 16.4 13.9 85 212 3.6 5.6 1004.1 0.6060 16.2000
18:20 16.1 13.6 85 196 3.3 5 1004.5 0.3030 16.2000
18:31 15.8 13.1 84 189 3.1 4.4 1005.2 0.2020 16.2000
18:41 15.5 12.8 84 190 3.1 5 1005.5 0.2020 16.2000
18:51 15.1 12.4 84 191 3.3 5.3 1006 0.2020 16.2000
19:01 14.8 12.1 84 186 3.1 5.3 1006.4 0.2020 16.2000
19:11 14.6 11.9 84 186 3.1 5 1006.6 0.0000 16.2000
19:21 14.4 11.9 85 191 3.3 5 1006.6 0.0000 16.2000
19:31 14.2 11.5 84 181 3.1 4.7 1007.6 0.0000 16.2000
19:41 14.1 11.6 85 189 3.3 5.8 1008.4 0.0000 16.2000
19:47 13.9 11.4 85 177 3.1 5 1008.3 0.0000 16.2000
19:56 13.7 11.2 85 189 3.3 6.1 1008.3 0.0000 16.2000
20:06 13.4 10.8 84 177 3.6 4.4 1008.9 0.0000 16.2000
20:17 13.2 10.6 84 172 3.6 5.3 1009.7 0.0000 16.2000
20:27 13 10.4 84 164 3.9 5.3 1010.5 0.0000 16.2000
20:42 12.7 10.1 84 160 3.6 6.4 1011.4 0.0000 16.2000
20:53 12.5 9.9 84 161 3.6 5.6 1011.9 0.0000 16.2000
21:02 12.5 9.9 84 161 3.9 5.6 1012.5 0.0000 16.2000
21:12 12.3 9.5 83 153 4.4 6.1 1013.4 0.0000 16.2000
21:22 12.2 9.4 83 152 4.4 6.4 1013.9 0.0000 16.2000
21:33 12 9.2 83 145 4.2 7.2 1014.4 0.0000 16.2000
21:42 11.9 9.1 83 154 4.2 6.7 1014.7 0.0000 16.2000
21:52 11.7 8.9 83 150 4.2 6.7 1014.8 0.0000 16.2000
22:03 11.5 8.7 83 156 3.9 5.3 1015.1 0.0000 16.2000
22:13 11.4 8.6 83 153 3.9 6.7 1015.4 0.0000 16.2000
22:23 11.3 8.5 83 158 3.9 5.6 1015.7 0.0000 16.2000
22:33 11.2 8.4 83 146 4.2 6.4 1015.9 0.0000 16.2000
22:43 11 8.2 83 156 3.9 5.8 1016.5 0.0000 16.2000
22:53 10.9 8 82 160 3.6 6.4 1017.3 0.0000 16.2000
23:03 10.8 7.9 82 155 3.3 6.1 1018 0.0000 16.2000
23:14 10.7 7.8 82 164 3.1 5.8 1018.2 0.0000 16.2000
23:23 10.7 7.8 82 170 3.1 6.1 1018.4 0.0000 16.2000
23:33 10.6 7.7 82 176 2.8 5.8 1019.1 0.0000 16.2000
23:38 10.5 7.6 82 173 2.5 5 1019.1 0.0000 16.2000
23:49 10.5 7.6 82 175 2.5 4.2 1019.5 0.0000 16.2000

DAY STATISTIC

2018-09-23
TEMPERATURE
AVERAGE
13.8
HIGH
20.8
16:14
LOW
10.5
23:38
PRESSURE
AVERAGE
1010.9
HIGH
1019.5
23:49
LOW
1000.5
16:51
DEWPOINT
AVERAGE
11.5
HIGH
17.2
16:51
LOW
7.6
23:38
HUMIDITY
AVERAGE
86
HIGH
97
12:16
LOW
77
00:09
WIND SPEED
AVERAGE
1.2
HIGH
4.4
21:12
WIND GUST
AVERAGE
2.3
HIGH
7.2
21:33
WIND DIRECTION
PREVAILING
E
38%
N
0.0
NE
8.5
E
38.0
SE
22.5
S
22.5
SW
4.9
W
0.7
NW
0.7
PRECIPITATION
RAIN HOUR
9.0
RAIN DAY
16.2
TEMPERATURE (°C)
LOW
10.5
HIGH
20.8
AVERAGE
13.8
PRESSURE (hpa)
LOW
1000.5
HIGH
1019.5
AVERAGE
1010.9
DEVICE